首页
METAR-TAF:

METAR-TAF

机场 :

明斯克国际机场

明斯克, 白俄罗斯

纬度: 53-56N, 经度: 027-38E, 海拔: 234米

当前天气观测

该预报发布于38分钟前的02:30 UTC
风速2节,风向多变
温度 -2°C
湿度 86%
气压 1020 hPa
能见度10公里或以上
1500米以下无云,无积雨云

METAR: UMMS 090230Z VRB01MPS CAVOK M02/M04 Q1020 R31R/////// R31L/CLRD// NOSIG

时间: 06:08 (03:08 UTC)

预报

该预报发布于4小时和5分钟前的23:03 UTC
预报有效从09日的 00点(UTC)到 09日的 24点(UTC)
风速12节,风向西转西南
能见度10公里或以上
散云层高于2000英尺
短暂存在
从 09日的 06点(UTC)到 09日的 12点(UTC)
风速17节,风向西,有时为27节阵风
多云层高于1500英尺
短暂存在
从 09日的 12点(UTC)到 09日的 24点(UTC)
风速19节,风向西转西北,有时为29节阵风
能見度: 2000
多云层高于500英尺
多云层高于2000英尺, 积雨云.
阵雨

TAF: UMMS 082303Z 0900/0924 24006MPS 9999 SCT020 TEMPO 0906/0912 27009G14MPS BKN015 TEMPO 0912/0924 30010G15MPS 2000 SHRA BKN005 BKN020CB

超过4000个机场的气象观测和天气预报(METAR&TAF报告)。

可查询的气象台以黄色和红色小点在地图上表示。

将鼠标移到小点上方,可查看气象台名称。

然后点击查看天气观测和预报。

如需切换地图:点击带黑十字的绿色按钮放大地图;点击带横线的绿色按钮缩小地图;或者点击绿色箭头查看邻近地区的地图。


METAR-TAF: